Time;durP1;ratioP1;P1;durP2;ratioP2;P2;SDS_P1;SDS_P2;PMS_P1;PMS_P2;Temp;Humidity;BMP_temperature;BMP_pressure;BME280_temperature;BME280_humidity;BME280_pressure;Samples;Min_cycle;Max_cycle;Signal;HPM_P1;HPM_P2
2022/03/23 00:00:14;;;;;;;24.63;11.90;;;19.90;53.00;;;;;;5011797;28;20043;-70
2022/03/23 00:02:40;;;;;;;24.10;11.57;;;20.00;53.00;;;;;;4998998;28;20085;-67
2022/03/23 00:05:07;;;;;;;23.17;12.13;;;20.00;53.10;;;;;;4999461;28;20049;-71
2022/03/23 00:07:34;;;;;;;22.02;11.23;;;20.00;53.00;;;;;;4999122;28;20043;-70
2022/03/23 00:10:01;;;;;;;26.60;11.55;;;19.90;53.10;;;;;;4998358;28;20058;-70
2022/03/23 00:12:28;;;;;;;26.88;11.07;;;19.80;53.00;;;;;;4997823;28;20050;-70
2022/03/23 00:14:54;;;;;;;24.98;11.50;;;19.90;53.20;;;;;;4997478;28;20143;-70
2022/03/23 00:17:20;;;;;;;24.52;11.80;;;19.70;53.10;;;;;;5013262;28;20065;-71
2022/03/23 00:19:47;;;;;;;20.80;11.93;;;19.80;53.10;;;;;;5005784;28;20043;-71
2022/03/23 00:22:15;;;;;;;23.25;11.50;;;19.60;53.00;;;;;;4998167;28;20109;-71
2022/03/23 00:24:41;;;;;;;21.70;11.48;;;19.70;53.10;;;;;;4998870;28;20041;-70
2022/03/23 00:27:07;;;;;;;22.65;11.05;;;19.70;53.10;;;;;;4996811;28;20035;-71
2022/03/23 00:29:33;;;;;;;24.65;11.80;;;19.70;53.10;;;;;;4997828;28;20034;-71
2022/03/23 00:31:59;;;;;;;22.00;11.57;;;19.70;53.10;;;;;;4997296;28;20467;-71
2022/03/23 00:34:25;;;;;;;27.80;11.20;;;19.60;52.80;;;;;;5002463;28;20039;-71
2022/03/23 00:36:51;;;;;;;18.63;10.57;;;19.60;52.60;;;;;;5018199;28;20106;-70
2022/03/23 00:39:20;;;;;;;23.75;10.88;;;19.60;52.60;;;;;;5033679;28;20042;-71
2022/03/23 00:41:49;;;;;;;20.60;10.70;;;19.80;52.60;;;;;;5002358;28;20038;-71
2022/03/23 00:44:16;;;;;;;23.92;10.95;;;19.70;52.50;;;;;;4996855;28;20045;-70
2022/03/23 00:46:43;;;;;;;21.00;11.45;;;19.80;52.40;;;;;;5007296;28;20046;-71
2022/03/23 00:49:09;;;;;;;22.80;10.43;;;19.60;52.20;;;;;;4999474;28;20031;-71
2022/03/23 00:51:36;;;;;;;18.45;11.25;;;19.70;52.30;;;;;;4998450;28;20046;-71
2022/03/23 00:54:02;;;;;;;25.90;11.13;;;19.70;52.20;;;;;;4998111;28;20034;-71
2022/03/23 00:56:29;;;;;;;23.92;11.07;;;19.60;52.20;;;;;;4999457;28;20039;-71
2022/03/23 00:58:55;;;;;;;25.40;11.95;;;19.60;52.20;;;;;;4998281;28;20041;-71
2022/03/23 01:01:22;;;;;;;22.27;12.40;;;19.60;52.20;;;;;;4998549;28;20047;-71
2022/03/23 01:03:49;;;;;;;19.63;11.30;;;19.50;52.20;;;;;;5012918;28;20050;-71
2022/03/23 01:06:15;;;;;;;22.95;10.88;;;19.50;52.30;;;;;;4994809;28;20041;-71
2022/03/23 01:08:41;;;;;;;23.77;11.32;;;19.40;52.30;;;;;;4997104;28;20099;-71
2022/03/23 01:11:07;;;;;;;26.20;11.63;;;19.50;52.30;;;;;;4997230;28;20027;-70
2022/03/23 01:13:34;;;;;;;21.67;10.98;;;19.40;52.30;;;;;;5010354;28;20038;-70
2022/03/23 01:16:02;;;;;;;25.15;11.73;;;19.40;52.40;;;;;;4998219;28;20057;-71
2022/03/23 01:18:28;;;;;;;21.63;11.77;;;19.50;52.50;;;;;;5000184;28;20054;-71
2022/03/23 01:20:54;;;;;;;24.85;12.02;;;19.30;52.30;;;;;;4999744;28;20046;-71
2022/03/23 01:23:22;;;;;;;20.77;10.75;;;19.30;52.30;;;;;;4997413;28;20050;-71
2022/03/23 01:25:48;;;;;;;21.75;10.65;;;19.30;52.20;;;;;;4996467;28;20099;-71
2022/03/23 01:28:15;;;;;;;30.45;11.85;;;19.40;52.00;;;;;;4997488;28;20055;-71
2022/03/23 01:30:41;;;;;;;26.00;12.40;;;19.40;51.90;;;;;;5000854;28;20049;-71
2022/03/23 01:33:07;;;;;;;22.65;12.32;;;19.40;51.80;;;;;;5015551;28;20034;-71
2022/03/23 01:35:33;;;;;;;23.40;11.45;;;19.40;51.70;;;;;;5011933;28;20042;-70
2022/03/23 01:37:59;;;;;;;20.90;10.00;;;19.40;51.60;;;;;;4996818;28;20066;-71
2022/03/23 01:40:25;;;;;;;19.38;10.68;;;19.50;51.80;;;;;;4997237;28;20046;-70
2022/03/23 01:42:52;;;;;;;21.67;11.65;;;19.50;51.80;;;;;;4995348;28;20053;-71
2022/03/23 01:45:19;;;;;;;21.05;10.90;;;19.40;51.60;;;;;;5012164;28;20070;-71
2022/03/23 01:47:45;;;;;;;21.88;12.23;;;19.50;51.70;;;;;;5015296;28;20034;-71
2022/03/23 01:50:11;;;;;;;20.40;11.55;;;19.40;51.50;;;;;;4997305;28;20038;-71
2022/03/23 01:52:38;;;;;;;23.58;12.82;;;19.50;51.50;;;;;;4999724;28;20070;-71
2022/03/23 01:55:08;;;;;;;25.15;11.50;;;19.50;51.40;;;;;;4995563;28;20042;-71
2022/03/23 01:57:35;;;;;;;19.45;11.70;;;19.50;51.50;;;;;;5012604;28;20057;-71
2022/03/23 02:00:05;;;;;;;21.48;10.48;;;19.40;51.50;;;;;;5013888;28;20221;-71
2022/03/23 02:02:40;;;;;;;21.83;11.68;;;19.40;51.60;;;;;;4996284;28;20069;-71
2022/03/23 02:05:09;;;;;;;20.88;11.50;;;19.30;51.60;;;;;;4997101;28;20090;-71
2022/03/23 02:07:36;;;;;;;24.85;11.05;;;19.30;51.60;;;;;;4996422;28;20070;-70
2022/03/23 02:10:04;;;;;;;23.75;11.88;;;19.30;51.60;;;;;;4996101;28;20043;-70
2022/03/23 02:12:44;;;;;;;25.27;11.43;;;19.20;51.60;;;;;;4996497;28;20062;-71
2022/03/23 02:15:16;;;;;;;23.60;12.15;;;19.20;51.70;;;;;;5016104;28;20072;-71
2022/03/23 02:17:43;;;;;;;27.17;12.35;;;19.10;51.70;;;;;;4995241;28;20070;-71
2022/03/23 02:20:11;;;;;;;24.98;12.15;;;19.20;51.70;;;;;;4996675;28;20073;-71
2022/03/23 02:22:38;;;;;;;20.15;11.98;;;19.10;51.80;;;;;;5028792;28;20054;-70
2022/03/23 02:25:07;;;;;;;22.25;11.50;;;19.10;51.80;;;;;;4997662;28;20045;-71
2022/03/23 02:27:38;;;;;;;21.70;11.52;;;19.00;51.70;;;;;;5016020;28;20065;-71
2022/03/23 02:30:06;;;;;;;21.70;11.60;;;19.10;51.60;;;;;;5000184;28;20098;-71
2022/03/23 02:32:33;;;;;;;26.58;11.68;;;19.10;51.40;;;;;;4978584;28;20043;-71
2022/03/23 02:35:03;;;;;;;20.65;11.23;;;19.10;51.20;;;;;;4995371;28;20043;-71
2022/03/23 02:37:29;;;;;;;19.00;10.70;;;19.10;51.10;;;;;;4999986;28;20042;-71
2022/03/23 02:39:55;;;;;;;20.63;12.13;;;19.10;50.90;;;;;;4999503;28;20082;-71
2022/03/23 02:42:23;;;;;;;17.95;10.48;;;19.10;50.90;;;;;;5016299;28;20035;-71
2022/03/23 02:44:49;;;;;;;25.30;12.82;;;19.10;50.80;;;;;;4985632;28;20035;-71
2022/03/23 02:47:15;;;;;;;25.75;12.38;;;19.10;50.70;;;;;;4999297;28;20077;-71
2022/03/23 02:49:41;;;;;;;25.38;12.15;;;19.20;50.70;;;;;;5000353;28;20061;-71
2022/03/23 02:52:08;;;;;;;23.45;11.73;;;19.10;50.60;;;;;;5000426;28;20070;-71
2022/03/23 03:03:04;;;;;;;25.80;11.88;;;19.00;50.90;;;;;;5000376;28;20054;-71
2022/03/23 03:05:30;;;;;;;24.45;11.23;;;19.00;51.00;;;;;;5014693;28;20051;-71
2022/03/23 03:10:41;;;;;;;26.85;11.20;;;19.00;51.10;;;;;;5001973;28;20046;-71
2022/03/23 03:13:07;;;;;;;20.02;12.50;;;18.90;51.10;;;;;;4999568;28;20042;-71
2022/03/23 03:15:34;;;;;;;26.05;12.18;;;18.90;51.00;;;;;;5013272;28;20070;-71
2022/03/23 03:18:00;;;;;;;21.90;12.25;;;19.00;50.90;;;;;;5019533;28;20043;-71
2022/03/23 03:20:27;;;;;;;24.65;12.48;;;18.90;50.60;;;;;;5019403;28;20062;-71
2022/03/23 03:22:54;;;;;;;30.55;13.15;;;18.90;50.50;;;;;;5019514;28;20053;-70
2022/03/23 03:25:21;;;;;;;21.27;12.05;;;19.00;50.40;;;;;;5011410;28;20044;-71
2022/03/23 03:27:48;;;;;;;22.50;11.15;;;18.90;50.20;;;;;;5019169;28;20050;-71
2022/03/23 03:30:16;;;;;;;18.52;9.73;;;18.90;50.00;;;;;;5009143;28;20042;-71
2022/03/23 03:32:43;;;;;;;26.55;10.38;;;19.00;49.90;;;;;;5019370;28;20046;-71
2022/03/23 03:35:10;;;;;;;22.55;11.05;;;19.00;49.90;;;;;;4985290;28;20039;-70
2022/03/23 03:37:37;;;;;;;16.50;10.73;;;19.00;49.70;;;;;;4999312;28;20035;-71
2022/03/23 03:40:06;;;;;;;24.33;10.70;;;19.00;49.70;;;;;;5007906;28;20053;-71
2022/03/23 03:42:34;;;;;;;20.08;11.73;;;19.10;49.70;;;;;;5003085;28;20077;-71
2022/03/23 03:45:01;;;;;;;21.85;11.75;;;19.00;49.80;;;;;;4992101;28;20118;-71
2022/03/23 03:47:27;;;;;;;19.45;10.93;;;18.90;49.90;;;;;;4998658;28;20038;-71
2022/03/23 03:49:53;;;;;;;21.38;10.88;;;18.90;50.00;;;;;;4999647;28;20102;-70
2022/03/23 03:52:20;;;;;;;22.80;11.38;;;18.80;50.00;;;;;;5012926;28;20042;-70
2022/03/23 03:54:47;;;;;;;24.45;11.82;;;18.80;50.10;;;;;;5011785;28;20066;-70
2022/03/23 03:57:13;;;;;;;21.95;12.40;;;18.80;50.20;;;;;;4999220;28;20051;-71
2022/03/23 03:59:39;;;;;;;24.70;12.30;;;18.80;50.20;;;;;;5017129;28;20050;-70
2022/03/23 04:02:06;;;;;;;26.52;11.27;;;18.90;50.40;;;;;;5002001;28;20042;-70
2022/03/23 04:04:32;;;;;;;23.98;11.82;;;18.80;50.50;;;;;;5013164;28;20031;-71
2022/03/23 04:06:58;;;;;;;26.33;12.85;;;18.80;50.50;;;;;;5018739;28;20038;-71
2022/03/23 04:09:24;;;;;;;26.50;11.82;;;18.80;50.60;;;;;;5011153;28;20039;-71
2022/03/23 04:11:53;;;;;;;25.20;11.35;;;18.80;50.50;;;;;;5013886;28;20042;-71
2022/03/23 04:14:19;;;;;;;20.90;11.50;;;18.70;50.30;;;;;;4999298;28;20083;-71
2022/03/23 04:16:45;;;;;;;24.27;11.55;;;18.80;50.00;;;;;;5001130;28;20042;-71
2022/03/23 04:19:11;;;;;;;26.10;11.18;;;18.90;49.90;;;;;;5018193;28;20076;-71
2022/03/23 04:21:37;;;;;;;24.00;11.02;;;18.80;49.70;;;;;;5018342;28;20097;-71
2022/03/23 04:24:04;;;;;;;20.33;11.02;;;18.70;49.50;;;;;;5014420;28;20107;-71
2022/03/23 04:26:30;;;;;;;24.90;11.27;;;18.70;49.40;;;;;;5012802;28;20080;-71
2022/03/23 04:28:56;;;;;;;18.92;11.10;;;18.90;49.40;;;;;;5007494;28;20042;-71
2022/03/23 04:31:22;;;;;;;24.83;10.98;;;18.80;49.20;;;;;;5000632;28;20043;-71
2022/03/23 04:33:48;;;;;;;18.95;10.13;;;18.90;49.30;;;;;;4998737;28;20043;-70
2022/03/23 04:36:14;;;;;;;18.02;10.27;;;18.80;49.10;;;;;;4997478;28;20062;-71
2022/03/23 04:38:40;;;;;;;25.20;11.85;;;18.90;49.20;;;;;;4997812;28;20038;-70
2022/03/23 04:41:07;;;;;;;21.83;12.32;;;19.00;49.30;;;;;;4997878;28;20068;-70
2022/03/23 04:43:35;;;;;;;25.08;12.00;;;18.90;49.30;;;;;;4998341;28;20050;-71
2022/03/23 04:46:01;;;;;;;24.05;12.32;;;19.00;49.30;;;;;;5015588;28;20046;-71
2022/03/23 04:48:27;;;;;;;22.63;12.07;;;18.80;49.40;;;;;;4998328;28;20043;-70
2022/03/23 04:50:54;;;;;;;24.08;12.57;;;18.80;49.60;;;;;;4996579;28;20035;-71
2022/03/23 04:53:21;;;;;;;29.17;12.90;;;18.70;49.70;;;;;;4997496;28;20135;-69
2022/03/23 04:55:47;;;;;;;25.83;14.00;;;18.80;49.80;;;;;;4996662;28;20043;-70
2022/03/23 04:58:13;;;;;;;30.42;15.25;;;18.70;49.90;;;;;;4997049;28;20057;-71
2022/03/23 05:00:40;;;;;;;28.85;13.70;;;18.70;50.00;;;;;;4998104;28;20044;-71
2022/03/23 05:03:06;;;;;;;28.27;14.52;;;18.80;50.00;;;;;;5017119;28;20038;-71
2022/03/23 05:05:32;;;;;;;32.38;14.38;;;18.80;50.00;;;;;;5002882;28;20054;-70
2022/03/23 05:07:58;;;;;;;27.10;12.93;;;18.70;49.80;;;;;;4997465;28;20027;-70
2022/03/23 05:10:24;;;;;;;28.58;13.02;;;18.70;49.50;;;;;;4996673;28;20050;-71
2022/03/23 05:12:51;;;;;;;24.98;12.13;;;18.80;49.30;;;;;;5021454;28;20050;-71
2022/03/23 05:15:18;;;;;;;26.23;13.15;;;18.70;49.20;;;;;;5005343;28;20049;-71
2022/03/23 05:17:45;;;;;;;33.35;14.07;;;18.90;49.10;;;;;;5016421;28;20049;-71
2022/03/23 05:20:13;;;;;;;29.80;14.60;;;18.80;48.80;;;;;;4996234;28;20102;-71
2022/03/23 05:22:41;;;;;;;32.58;14.82;;;18.90;48.90;;;;;;4997184;28;20051;-71
2022/03/23 05:25:08;;;;;;;25.23;14.25;;;18.80;48.70;;;;;;4997197;28;20042;-70
2022/03/23 05:27:35;;;;;;;29.83;14.30;;;18.90;48.80;;;;;;4997151;28;20065;-71
2022/03/23 05:30:03;;;;;;;35.28;14.27;;;18.80;48.70;;;;;;4997717;28;20170;-71
2022/03/23 05:32:29;;;;;;;25.63;14.10;;;18.90;48.70;;;;;;4996229;28;20124;-71
2022/03/23 05:34:55;;;;;;;25.27;14.20;;;18.80;48.60;;;;;;4995891;28;20023;-71
2022/03/23 05:37:22;;;;;;;28.52;13.50;;;18.70;48.70;;;;;;4996378;28;20109;-70
2022/03/23 05:39:48;;;;;;;29.30;14.20;;;18.80;48.80;;;;;;4996765;28;20094;-71
2022/03/23 05:42:15;;;;;;;31.83;13.80;;;18.80;48.90;;;;;;4996480;28;20046;-71
2022/03/23 05:44:41;;;;;;;29.40;14.15;;;18.90;49.10;;;;;;4997524;28;20039;-71
2022/03/23 05:47:07;;;;;;;29.25;14.40;;;18.80;49.10;;;;;;4997973;28;20158;-71
2022/03/23 05:49:33;;;;;;;26.85;13.32;;;18.80;49.00;;;;;;4996940;28;20030;-71
2022/03/23 05:52:00;;;;;;;33.22;12.18;;;18.80;49.20;;;;;;4996914;28;20043;-71
2022/03/23 05:54:26;;;;;;;29.55;12.70;;;18.80;49.20;;;;;;4996034;28;20043;-71
2022/03/23 05:56:52;;;;;;;23.38;12.18;;;18.80;49.20;;;;;;4995963;28;20042;-70
2022/03/23 05:59:18;;;;;;;24.75;13.65;;;18.80;49.10;;;;;;4995729;28;20049;-71
2022/03/23 06:01:46;;;;;;;26.30;12.60;;;18.90;49.20;;;;;;4996369;28;20046;-71
2022/03/23 06:04:12;;;;;;;25.25;11.35;;;18.90;49.10;;;;;;4995544;28;20041;-70
2022/03/23 06:06:39;;;;;;;28.45;13.00;;;18.80;48.70;;;;;;4995470;28;20059;-70
2022/03/23 06:09:05;;;;;;;25.15;12.23;;;18.90;49.20;;;;;;4998399;28;20845;-72
2022/03/23 06:11:32;;;;;;;27.77;13.45;;;18.90;49.10;;;;;;4995186;28;20097;-70
2022/03/23 06:13:58;;;;;;;28.25;12.13;;;19.00;55.00;;;;;;5002067;28;20050;-70
2022/03/23 06:16:25;;;;;;;32.15;13.07;;;19.30;58.70;;;;;;5003739;28;20038;-71
2022/03/23 06:18:51;;;;;;;23.75;12.93;;;19.60;59.20;;;;;;5002247;28;20027;-71
2022/03/23 06:21:18;;;;;;;32.83;13.20;;;19.90;59.50;;;;;;4999951;28;20045;-71
2022/03/23 06:23:44;;;;;;;20.45;10.80;;;20.00;59.10;;;;;;4998095;28;20062;-70
2022/03/23 06:26:13;;;;;;;18.40;8.27;;;20.20;53.20;;;;;;4999445;28;20029;-70
2022/03/23 06:28:47;;;;;;;13.27;7.38;;;20.10;45.00;;;;;;4998136;28;20035;-69
2022/03/23 06:31:13;;;;;;;10.88;6.43;;;20.10;43.70;;;;;;4997399;28;20043;-69
2022/03/23 06:33:39;;;;;;;9.02;5.88;;;20.40;46.00;;;;;;5000975;28;20097;-69
2022/03/23 06:36:05;;;;;;;12.57;6.88;;;20.30;45.50;;;;;;5000165;28;20039;-70
2022/03/23 06:38:31;;;;;;;15.38;7.43;;;20.40;41.00;;;;;;4999373;28;20038;-69
2022/03/23 06:40:58;;;;;;;18.20;9.13;;;20.40;38.80;;;;;;4998926;28;20106;-69
2022/03/23 06:43:26;;;;;;;16.02;10.05;;;20.40;42.20;;;;;;5001528;28;20042;-71
2022/03/23 06:45:52;;;;;;;12.82;8.57;;;20.40;40.40;;;;;;5012013;28;20090;-70
2022/03/23 06:48:19;;;;;;;27.00;14.52;;;20.50;44.40;;;;;;4998717;28;20038;-71
2022/03/23 06:50:45;;;;;;;30.92;14.15;;;20.60;54.00;;;;;;4999855;28;20038;-69
2022/03/23 06:53:12;;;;;;;28.25;14.43;;;20.70;53.90;;;;;;4998353;28;20050;-69
2022/03/23 06:55:38;;;;;;;24.70;13.38;;;20.60;54.70;;;;;;4994645;28;20038;-71
2022/03/23 06:58:04;;;;;;;29.45;14.82;;;20.60;57.70;;;;;;4999838;28;20049;-74
2022/03/23 07:00:31;;;;;;;31.00;14.80;;;20.60;56.40;;;;;;5002745;28;20073;-71
2022/03/23 07:02:58;;;;;;;22.83;12.68;;;20.40;56.20;;;;;;4998150;28;20045;-70
2022/03/23 07:05:24;;;;;;;29.17;14.73;;;20.40;57.20;;;;;;4999113;28;20034;-71
2022/03/23 07:10:36;;;;;;;24.67;13.20;;;20.50;57.70;;;;;;4998315;28;20039;-70
2022/03/23 07:13:04;;;;;;;27.08;12.52;;;20.50;58.70;;;;;;5000225;28;20038;-69
2022/03/23 07:15:30;;;;;;;23.65;12.57;;;20.40;58.60;;;;;;4999237;28;20056;-72
2022/03/23 07:17:56;;;;;;;25.95;12.98;;;20.60;58.50;;;;;;4998692;28;20039;-72
2022/03/23 07:20:24;;;;;;;24.75;12.85;;;20.40;58.50;;;;;;5009894;28;20055;-71
2022/03/23 07:22:52;;;;;;;30.55;12.65;;;20.50;59.10;;;;;;4997800;28;20047;-72
2022/03/23 07:25:18;;;;;;;25.20;12.55;;;20.60;59.30;;;;;;5002365;28;20034;-69
2022/03/23 07:27:44;;;;;;;25.70;11.13;;;20.60;59.60;;;;;;5001042;28;20058;-71
2022/03/23 07:30:11;;;;;;;29.27;12.63;;;20.60;59.80;;;;;;5007943;28;20057;-71
2022/03/23 07:32:38;;;;;;;35.05;12.05;;;20.70;59.80;;;;;;5003012;28;20074;-71
2022/03/23 07:35:05;;;;;;;23.58;10.18;;;20.70;59.70;;;;;;5000697;28;20058;-71
2022/03/23 07:37:31;;;;;;;17.42;8.82;;;20.80;59.50;;;;;;5014747;28;20064;-71
2022/03/23 07:39:57;;;;;;;26.25;12.60;;;20.80;58.60;;;;;;5007435;28;20046;-71
2022/03/23 07:42:24;;;;;;;12.90;7.32;;;21.00;59.00;;;;;;4999797;28;20067;-70
2022/03/23 07:44:50;;;;;;;21.88;11.18;;;20.90;55.20;;;;;;4997402;28;20121;-70
2022/03/23 07:47:16;;;;;;;32.60;14.13;;;21.00;46.70;;;;;;5000713;28;20035;-69
2022/03/23 07:49:42;;;;;;;15.70;6.80;;;21.20;43.20;;;;;;4997623;28;20038;-71
2022/03/23 07:52:10;;;;;;;13.02;5.07;;;21.30;42.90;;;;;;4995873;28;20046;-70
2022/03/23 07:54:36;;;;;;;19.77;11.65;;;21.30;42.90;;;;;;5002034;28;20042;-69
2022/03/23 07:57:02;;;;;;;22.63;10.43;;;21.50;54.30;;;;;;5012208;28;20042;-70
2022/03/23 07:59:29;;;;;;;22.92;10.05;;;21.60;54.60;;;;;;5008777;28;20082;-72
2022/03/23 08:01:55;;;;;;;22.13;10.82;;;21.70;54.70;;;;;;4997929;28;20047;-72
2022/03/23 08:04:21;;;;;;;21.88;7.70;;;21.60;54.60;;;;;;4998259;28;20030;-72
2022/03/23 08:06:47;;;;;;;12.27;6.30;;;21.50;54.80;;;;;;4997916;28;20049;-71
2022/03/23 08:09:13;;;;;;;13.82;6.35;;;21.60;54.90;;;;;;4999318;28;20070;-71
2022/03/23 08:11:41;;;;;;;16.67;6.95;;;21.80;55.10;;;;;;4996174;28;20038;-72
2022/03/23 08:14:07;;;;;;;20.40;8.75;;;21.60;54.80;;;;;;4998552;28;20051;-71
2022/03/23 08:16:33;;;;;;;16.00;7.25;;;21.60;54.50;;;;;;4997757;28;20038;-71
2022/03/23 08:18:59;;;;;;;19.65;8.43;;;21.70;54.40;;;;;;4996309;28;20034;-71
2022/03/23 08:21:28;;;;;;;17.25;7.28;;;21.60;54.00;;;;;;4997092;28;20152;-71
2022/03/23 08:23:55;;;;;;;15.32;5.68;;;21.60;54.00;;;;;;4996621;28;20042;-71
2022/03/23 08:26:22;;;;;;;15.73;7.80;;;21.60;56.20;;;;;;4998350;28;20058;-72
2022/03/23 08:28:48;;;;;;;12.27;6.47;;;21.70;55.90;;;;;;4997601;28;20054;-71
2022/03/23 08:31:15;;;;;;;9.63;5.45;;;21.60;55.50;;;;;;5009780;28;20066;-73
2022/03/23 08:33:41;;;;;;;16.63;6.25;;;21.60;56.70;;;;;;4997846;28;20042;-72
2022/03/23 08:36:08;;;;;;;19.63;7.47;;;21.60;55.20;;;;;;4996606;28;20038;-72
2022/03/23 08:38:35;;;;;;;18.67;6.25;;;21.60;53.40;;;;;;4996922;28;20034;-71
2022/03/23 08:41:02;;;;;;;17.38;7.63;;;21.70;51.80;;;;;;5000027;28;20058;-71
2022/03/23 08:43:28;;;;;;;12.95;5.70;;;21.60;50.30;;;;;;4997769;28;20045;-70
2022/03/23 08:45:54;;;;;;;20.75;6.00;;;21.50;48.90;;;;;;4996184;28;20047;-71
2022/03/23 08:48:20;;;;;;;14.70;6.15;;;21.50;47.10;;;;;;4994999;28;20035;-71
2022/03/23 08:50:48;;;;;;;16.77;7.07;;;21.40;44.80;;;;;;4997635;28;20038;-71
2022/03/23 08:53:16;;;;;;;12.40;6.18;;;21.50;45.20;;;;;;4997137;28;20039;-71
2022/03/23 08:55:42;;;;;;;12.63;6.43;;;21.40;43.80;;;;;;4997511;28;20066;-71
2022/03/23 08:58:09;;;;;;;11.20;6.40;;;21.40;45.10;;;;;;5000845;28;20038;-70
2022/03/23 09:00:37;;;;;;;15.75;7.00;;;21.40;46.30;;;;;;4997518;28;20061;-70
2022/03/23 09:03:04;;;;;;;7.57;4.63;;;21.40;46.20;;;;;;4997125;28;20058;-70
2022/03/23 09:05:30;;;;;;;9.75;5.00;;;21.50;46.60;;;;;;4997053;28;20165;-70
2022/03/23 09:07:56;;;;;;;12.35;5.28;;;21.50;44.30;;;;;;4995996;28;20062;-70
2022/03/23 09:10:23;;;;;;;11.57;5.18;;;21.50;46.50;;;;;;4999592;28;20039;-70
2022/03/23 09:12:49;;;;;;;12.90;6.03;;;21.40;46.50;;;;;;4999692;28;20073;-70
2022/03/23 09:15:17;;;;;;;13.50;4.97;;;21.40;43.20;;;;;;4997378;28;20050;-70
2022/03/23 09:17:43;;;;;;;12.90;4.78;;;21.50;47.10;;;;;;4996815;28;20045;-70
2022/03/23 09:20:11;;;;;;;7.97;4.00;;;21.40;46.10;;;;;;4997310;28;20073;-70
2022/03/23 09:22:40;;;;;;;8.48;3.78;;;21.30;47.40;;;;;;4996693;28;20625;-70
2022/03/23 09:25:12;;;;;;;7.25;3.97;;;21.30;47.40;;;;;;4997103;28;20043;-70
2022/03/23 09:27:43;;;;;;;9.77;4.50;;;21.40;47.60;;;;;;4999313;28;20066;-70
2022/03/23 09:30:11;;;;;;;11.02;3.88;;;21.40;47.90;;;;;;4977376;28;20039;-70
2022/03/23 09:32:39;;;;;;;9.85;4.70;;;21.40;48.10;;;;;;4991307;28;20034;-70
2022/03/23 09:35:06;;;;;;;8.77;3.97;;;21.40;43.00;;;;;;4996680;28;20081;-70
2022/03/23 09:37:47;;;;;;;14.38;4.50;;;21.30;47.50;;;;;;4995960;28;20045;-70
2022/03/23 09:40:28;;;;;;;6.57;3.65;;;21.40;47.80;;;;;;4994344;28;20038;-70
2022/03/23 09:42:55;;;;;;;11.27;3.53;;;21.30;48.40;;;;;;4998925;28;20094;-69
2022/03/23 09:48:02;;;;;;;8.13;3.85;;;21.40;47.50;;;;;;4995946;28;20066;-69
2022/03/23 09:50:29;;;;;;;10.32;4.18;;;21.30;48.60;;;;;;4996834;28;20070;-70
2022/03/23 09:52:56;;;;;;;5.30;2.58;;;21.40;47.20;;;;;;4994999;28;20102;-70
2022/03/23 09:55:23;;;;;;;10.43;3.78;;;21.40;48.60;;;;;;4986536;28;20043;-70
2022/03/23 09:57:52;;;;;;;5.50;2.72;;;21.40;48.70;;;;;;4999620;28;20048;-70
2022/03/23 10:00:19;;;;;;;7.38;3.17;;;21.30;48.70;;;;;;4996352;28;20050;-70
2022/03/23 10:02:58;;;;;;;9.25;3.75;;;21.40;48.40;;;;;;4996117;28;20065;-70
2022/03/23 10:05:32;;;;;;;5.93;3.17;;;21.40;48.40;;;;;;4996669;28;20042;-70
2022/03/23 10:08:20;;;;;;;9.00;3.72;;;21.30;48.30;;;;;;4995226;28;20046;-70
2022/03/23 10:11:13;;;;;;;6.93;4.15;;;21.30;48.60;;;;;;4996622;28;20039;-70
2022/03/23 10:13:39;;;;;;;;;;;21.30;47.80;;;;;;4999794;28;20086;-69
2022/03/23 10:16:43;;;;;;;5.60;3.97;;;21.30;45.10;;;;;;4995504;28;19921;-69
2022/03/23 10:19:09;;;;;;;7.68;4.53;;;21.30;48.70;;;;;;4978238;28;20043;-70
2022/03/23 10:21:39;;;;;;;11.90;3.88;;;21.40;48.60;;;;;;4996284;28;20042;-70
2022/03/23 10:24:05;;;;;;;6.93;3.72;;;21.40;48.80;;;;;;4996210;28;20098;-69
2022/03/23 10:26:33;;;;;;;7.85;4.75;;;21.40;46.30;;;;;;4995132;28;20046;-69
2022/03/23 10:29:00;;;;;;;11.35;5.78;;;21.50;46.90;;;;;;4998340;28;20046;-69
2022/03/23 10:31:28;;;;;;;7.78;4.93;;;21.40;33.70;;;;;;4995487;28;20039;-68
2022/03/23 10:34:07;;;;;;;12.10;4.20;;;21.40;43.10;;;;;;5011078;28;20391;-69
2022/03/23 10:36:34;;;;;;;9.68;4.15;;;21.40;48.00;;;;;;4995857;28;20054;-69
2022/03/23 10:39:03;;;;;;;7.55;4.30;;;21.40;48.80;;;;;;4996337;28;20031;-70
2022/03/23 10:41:30;;;;;;;10.68;3.83;;;21.50;48.80;;;;;;4996073;28;20047;-70
2022/03/23 10:43:57;;;;;;;11.25;4.85;;;21.50;48.90;;;;;;4998670;28;20049;-69
2022/03/23 10:46:23;;;;;;;10.80;4.68;;;21.60;48.30;;;;;;4995739;28;20038;-69
2022/03/23 10:49:01;;;;;;;13.27;5.50;;;21.60;49.20;;;;;;4995811;28;20034;-71
2022/03/23 10:51:35;;;;;;;2.53;2.03;;;21.60;49.20;;;;;;4995461;28;20089;-69
2022/03/23 10:54:13;;;;;;;;;;;21.60;49.40;;;;;;4994048;28;20077;-69
2022/03/23 10:56:39;;;;;;;1.58;1.33;;;21.60;49.90;;;;;;4992566;28;20109;-68
2022/03/23 10:59:23;;;;;;;0.70;0.70;;;21.60;49.90;;;;;;4998074;28;20051;-68
2022/03/23 11:02:05;;;;;;;7.68;2.47;;;21.70;50.90;;;;;;4998131;28;20074;-67
2022/03/23 11:04:44;;;;;;;1.60;1.50;;;22.00;47.70;;;;;;4998062;28;20094;-68
2022/03/23 11:07:30;;;;;;;4.65;3.47;;;22.20;46.40;;;;;;4997146;28;20134;-67
2022/03/23 11:15:47;;;;;;;4.35;3.22;;;22.30;44.60;;;;;;4997192;28;20042;-68
2022/03/23 11:18:15;;;;;;;2.90;2.65;;;22.20;44.60;;;;;;4991509;28;20042;-67
2022/03/23 11:20:53;;;;;;;7.38;2.63;;;22.10;44.40;;;;;;4999272;28;20051;-68
2022/03/23 11:23:25;;;;;;;7.47;3.40;;;22.20;44.60;;;;;;4998664;28;20102;-68
2022/03/23 11:25:57;;;;;;;9.85;2.95;;;22.10;45.70;;;;;;5002195;28;20102;-68
2022/03/23 11:28:23;;;;;;;4.50;1.95;;;22.10;45.80;;;;;;4997171;28;20062;-67
2022/03/23 11:30:51;;;;;;;5.47;2.80;;;22.00;45.50;;;;;;4999011;28;20042;-68
2022/03/23 11:33:22;;;;;;;4.70;2.97;;;22.20;44.10;;;;;;4995039;28;20122;-68
2022/03/23 11:35:50;;;;;;;7.82;3.33;;;22.30;44.50;;;;;;5030655;28;20042;-68
2022/03/23 11:38:22;;;;;;;10.35;4.45;;;22.30;44.90;;;;;;5000544;28;20046;-68
2022/03/23 11:40:50;;;;;;;4.10;3.30;;;22.50;45.80;;;;;;5001517;28;20064;-68
2022/03/23 11:43:20;;;;;;;7.40;4.93;;;22.50;45.60;;;;;;4998840;28;20280;-68
2022/03/23 11:45:49;;;;;;;9.90;4.85;;;22.30;43.70;;;;;;4998397;28;20095;-68
2022/03/23 11:48:27;;;;;;;9.90;6.43;;;22.30;43.60;;;;;;4998618;28;20066;-68
2022/03/23 11:51:31;;;;;;;9.82;5.25;;;22.30;43.90;;;;;;4998955;28;20034;-69
2022/03/23 11:54:16;;;;;;;;;;;22.10;42.60;;;;;;5012767;28;20042;-69
2022/03/23 11:56:58;;;;;;;15.75;7.18;;;22.10;44.60;;;;;;5009012;28;19933;-69
2022/03/23 11:59:30;;;;;;;12.82;6.75;;;22.20;44.50;;;;;;4998483;28;20043;-67
2022/03/23 12:01:58;;;;;;;20.00;5.95;;;22.30;42.40;;;;;;4998496;28;20078;-68
2022/03/23 12:04:27;;;;;;;10.40;5.68;;;22.30;42.90;;;;;;4995507;28;20046;-69
2022/03/23 12:07:00;;;;;;;10.02;4.85;;;22.20;44.50;;;;;;4998520;28;20053;-69
2022/03/23 12:09:33;;;;;;;11.07;4.88;;;22.10;44.60;;;;;;4998074;28;20046;-69
2022/03/23 12:12:01;;;;;;;11.48;5.90;;;22.20;44.60;;;;;;4996819;28;20061;-70
2022/03/23 12:14:35;;;;;;;10.60;5.60;;;22.10;43.10;;;;;;5013394;28;20047;-69
2022/03/23 12:17:26;;;;;;;15.48;6.07;;;22.00;44.90;;;;;;4994834;28;20078;-69
2022/03/23 12:19:53;;;;;;;9.85;5.70;;;22.10;45.30;;;;;;4991082;28;20035;-69
2022/03/23 12:22:35;;;;;;;10.52;6.20;;;22.10;45.30;;;;;;4996137;28;20074;-69
2022/03/23 12:25:12;;;;;;;8.73;5.70;;;22.10;45.30;;;;;;5020734;28;20053;-69
2022/03/23 12:28:24;;;;;;;16.60;6.78;;;22.00;46.40;;;;;;5001337;28;20038;-69
2022/03/23 12:30:57;;;;;;;11.93;6.70;;;22.10;49.60;;;;;;4974392;28;20053;-69
2022/03/23 12:33:28;;;;;;;10.87;6.07;;;22.00;48.30;;;;;;4998133;28;20046;-69
2022/03/23 12:36:03;;;;;;;8.90;5.88;;;21.90;46.00;;;;;;4996385;28;20046;-69
2022/03/23 12:38:30;;;;;;;12.80;5.47;;;22.00;46.50;;;;;;4996619;28;20046;-70
2022/03/23 12:41:02;;;;;;;11.63;5.07;;;22.00;46.20;;;;;;5000767;28;20042;-69
2022/03/23 12:43:46;;;;;;;12.15;5.47;;;21.90;46.00;;;;;;5012555;28;20059;-70
2022/03/23 12:46:21;;;;;;;13.10;4.72;;;22.00;46.60;;;;;;5000197;28;20037;-70
2022/03/23 13:00:25;;;;;;;9.65;5.53;;;22.00;46.40;;;;;;4996945;28;20098;-70
2022/03/23 13:03:09;;;;;;;11.15;5.68;;;22.00;45.80;;;;;;4996669;28;20053;-70
2022/03/23 13:05:58;;;;;;;8.48;4.97;;;22.00;43.20;;;;;;4996837;28;20066;-70
2022/03/23 13:08:33;;;;;;;7.47;4.70;;;22.00;46.50;;;;;;4991007;28;20054;-69
2022/03/23 13:11:05;;;;;;;8.18;5.20;;;22.00;46.50;;;;;;4997440;28;20043;-69
2022/03/23 13:13:37;;;;;;;20.70;6.22;;;21.90;45.00;;;;;;4996281;28;20048;-70